createdAt,value
2018-07-17T00:00:56.481Z,19.87
2018-07-17T00:01:56.429Z,19.87
2018-07-17T00:02:56.424Z,19.94
2018-07-17T00:03:56.485Z,19.87
2018-07-17T00:04:56.508Z,19.87
2018-07-17T00:05:56.409Z,19.94
2018-07-17T00:06:56.541Z,19.94
2018-07-17T00:07:56.403Z,19.87
2018-07-17T00:08:56.414Z,19.94
2018-07-17T00:09:56.410Z,19.87
2018-07-17T00:10:56.487Z,19.87
2018-07-17T00:11:56.456Z,19.94
2018-07-17T00:12:56.473Z,19.94
2018-07-17T00:13:56.474Z,19.87
2018-07-17T00:14:56.377Z,19.87
2018-07-17T00:15:56.385Z,19.87
2018-07-17T00:16:56.465Z,19.87
2018-07-17T00:17:56.495Z,19.87
2018-07-17T00:18:56.433Z,19.87
2018-07-17T00:19:56.443Z,19.87
2018-07-17T00:20:56.414Z,19.81
2018-07-17T00:21:56.436Z,19.87
2018-07-17T00:22:56.413Z,19.81
2018-07-17T00:23:56.455Z,19.87
2018-07-17T00:24:56.448Z,19.87
2018-07-17T00:25:56.413Z,19.81
2018-07-17T00:26:56.428Z,19.87
2018-07-17T00:27:56.432Z,19.81
2018-07-17T00:28:56.386Z,19.81
2018-07-17T00:29:56.402Z,19.87
2018-07-17T00:30:56.513Z,19.81
2018-07-17T00:31:56.429Z,19.81
2018-07-17T00:32:56.381Z,19.81
2018-07-17T00:33:56.470Z,19.81
2018-07-17T00:34:56.415Z,19.81
2018-07-17T00:35:56.473Z,19.81
2018-07-17T00:36:56.454Z,19.75
2018-07-17T00:37:56.407Z,19.75
2018-07-17T00:38:56.358Z,19.75
2018-07-17T00:39:56.381Z,19.75
2018-07-17T00:40:56.382Z,19.75
2018-07-17T00:41:56.378Z,19.62
2018-07-17T00:42:56.384Z,19.62
2018-07-17T00:43:56.391Z,19.56
2018-07-17T00:44:56.370Z,19.56
2018-07-17T00:45:56.360Z,19.56
2018-07-17T00:46:56.367Z,19.56
2018-07-17T00:47:56.466Z,19.62
2018-07-17T00:48:56.432Z,19.56
2018-07-17T00:49:56.408Z,19.56
2018-07-17T00:50:56.387Z,19.56
2018-07-17T00:51:56.390Z,19.56
2018-07-17T00:52:56.558Z,19.56
2018-07-17T00:53:56.392Z,19.56
2018-07-17T00:54:56.369Z,19.5
2018-07-17T00:55:56.368Z,19.5
2018-07-17T00:56:56.374Z,19.5
2018-07-17T00:57:56.499Z,19.5
2018-07-17T00:58:56.384Z,19.56
2018-07-17T00:59:56.458Z,19.5
2018-07-17T01:00:56.631Z,19.5
2018-07-17T01:01:56.405Z,19.56
2018-07-17T01:02:56.756Z,19.56
2018-07-17T01:03:56.405Z,19.5
2018-07-17T01:04:56.416Z,19.5
2018-07-17T01:05:56.393Z,19.56
2018-07-17T01:06:56.947Z,19.5
2018-07-17T01:07:56.373Z,19.5
2018-07-17T01:08:56.357Z,19.5
2018-07-17T01:09:56.580Z,19.5
2018-07-17T01:10:56.841Z,19.44
2018-07-17T01:11:56.376Z,19.5
2018-07-17T01:12:56.376Z,19.44
2018-07-17T01:13:56.542Z,19.44
2018-07-17T01:14:56.356Z,19.44
2018-07-17T01:15:56.384Z,19.44
2018-07-17T01:16:56.353Z,19.5
2018-07-17T01:17:56.788Z,19.44
2018-07-17T01:18:56.354Z,19.44
2018-07-17T01:19:56.413Z,19.5
2018-07-17T01:20:56.428Z,19.44
2018-07-17T01:21:56.521Z,19.44
2018-07-17T01:22:56.457Z,19.44
2018-07-17T01:23:56.359Z,19.44
2018-07-17T01:24:56.352Z,19.44
2018-07-17T01:25:56.396Z,19.37
2018-07-17T01:26:56.387Z,19.44
2018-07-17T01:27:56.369Z,19.44
2018-07-17T01:28:56.397Z,19.37
2018-07-17T01:29:56.370Z,19.37
2018-07-17T01:30:56.482Z,19.44
2018-07-17T01:31:56.423Z,19.37
2018-07-17T01:32:56.464Z,19.44
2018-07-17T01:33:56.390Z,19.37
2018-07-17T01:34:56.402Z,19.37
2018-07-17T01:35:56.459Z,19.37
2018-07-17T01:36:56.361Z,19.37
2018-07-17T01:37:56.428Z,19.37
2018-07-17T01:38:56.362Z,19.31
2018-07-17T01:39:56.385Z,19.31
2018-07-17T01:40:56.531Z,19.31
2018-07-17T01:41:56.363Z,19.31
2018-07-17T01:42:56.847Z,19.31
2018-07-17T01:43:56.505Z,19.31
2018-07-17T01:44:56.353Z,19.25
2018-07-17T01:45:56.460Z,19.25
2018-07-17T01:46:56.396Z,19.19
2018-07-17T01:47:56.400Z,19.19
2018-07-17T01:48:56.382Z,19.19
2018-07-17T01:49:56.391Z,19.19
2018-07-17T01:50:56.353Z,19.12
2018-07-17T01:51:56.359Z,19.12
2018-07-17T01:52:56.407Z,19.12
2018-07-17T01:53:56.466Z,19.12
2018-07-17T01:54:56.424Z,19.06
2018-07-17T01:55:56.339Z,19.06
2018-07-17T01:56:56.361Z,19.06
2018-07-17T01:57:56.376Z,19
2018-07-17T01:58:56.347Z,19
2018-07-17T01:59:56.362Z,19
2018-07-17T02:00:56.415Z,19
2018-07-17T02:01:56.352Z,19
2018-07-17T02:02:56.339Z,19
2018-07-17T02:03:56.386Z,19
2018-07-17T02:04:57.374Z,18.94
2018-07-17T02:05:56.350Z,18.94
2018-07-17T02:06:56.397Z,18.94
2018-07-17T02:07:56.377Z,18.87
2018-07-17T02:08:56.342Z,18.87
2018-07-17T02:09:56.347Z,18.87
2018-07-17T02:10:56.349Z,18.87
2018-07-17T02:11:56.393Z,18.81
2018-07-17T02:12:56.356Z,18.81
2018-07-17T02:13:56.379Z,18.81
2018-07-17T02:14:56.779Z,18.81
2018-07-17T02:15:56.382Z,18.75
2018-07-17T02:16:56.365Z,18.75
2018-07-17T02:17:56.456Z,18.75
2018-07-17T02:18:56.334Z,18.75
2018-07-17T02:19:56.359Z,18.69
2018-07-17T02:20:56.523Z,18.69
2018-07-17T02:21:56.401Z,18.75
2018-07-17T02:22:56.433Z,18.75
2018-07-17T02:23:56.357Z,18.69
2018-07-17T02:24:56.400Z,18.69
2018-07-17T02:25:56.378Z,18.62
2018-07-17T02:26:56.360Z,18.69
2018-07-17T02:27:56.381Z,18.69
2018-07-17T02:28:56.381Z,18.62
2018-07-17T02:29:56.564Z,18.62
2018-07-17T02:30:56.390Z,18.62
2018-07-17T02:31:56.570Z,18.62
2018-07-17T02:32:56.695Z,18.62
2018-07-17T02:33:56.360Z,18.56
2018-07-17T02:34:56.384Z,18.56
2018-07-17T02:35:56.406Z,18.56
2018-07-17T02:36:56.431Z,18.56
2018-07-17T02:37:56.469Z,18.56
2018-07-17T02:38:56.464Z,18.5
2018-07-17T02:39:56.360Z,18.5
2018-07-17T02:40:56.346Z,18.56
2018-07-17T02:41:56.427Z,18.5
2018-07-17T02:42:56.808Z,18.44
2018-07-17T02:43:56.440Z,18.44
2018-07-17T02:44:56.377Z,18.44
2018-07-17T02:45:56.383Z,18.44
2018-07-17T02:46:56.358Z,18.37
2018-07-17T02:47:56.342Z,18.37
2018-07-17T02:48:56.441Z,18.37
2018-07-17T02:49:56.440Z,18.37
2018-07-17T02:50:56.459Z,18.37
2018-07-17T02:51:56.369Z,18.31
2018-07-17T02:52:56.384Z,18.37
2018-07-17T02:53:56.423Z,18.37
2018-07-17T02:54:56.326Z,18.31
2018-07-17T02:55:56.466Z,18.31
2018-07-17T02:56:56.372Z,18.31
2018-07-17T02:57:56.443Z,18.31
2018-07-17T02:58:56.455Z,18.25
2018-07-17T02:59:56.521Z,18.25
2018-07-17T03:00:56.477Z,18.31
2018-07-17T03:01:56.578Z,18.25
2018-07-17T03:02:56.672Z,18.25
2018-07-17T03:03:56.467Z,18.25
2018-07-17T03:04:56.347Z,18.25
2018-07-17T03:05:56.511Z,18.25
2018-07-17T03:06:56.961Z,18.25
2018-07-17T03:07:56.373Z,18.19
2018-07-17T03:08:56.759Z,18.25
2018-07-17T03:09:56.766Z,18.19
2018-07-17T03:10:56.355Z,18.19
2018-07-17T03:11:56.317Z,18.12
2018-07-17T03:12:56.433Z,18.12
2018-07-17T03:13:56.394Z,18.12
2018-07-17T03:14:56.476Z,18.12
2018-07-17T03:15:56.325Z,18.12
2018-07-17T03:16:56.348Z,18.19
2018-07-17T03:17:56.326Z,18.12
2018-07-17T03:18:56.319Z,18.19
2018-07-17T03:19:56.369Z,18.12
2018-07-17T03:20:56.335Z,18.12
2018-07-17T03:21:56.333Z,18.19
2018-07-17T03:22:56.501Z,18.12
2018-07-17T03:23:56.354Z,18.19
2018-07-17T03:24:56.345Z,18.12
2018-07-17T03:25:56.367Z,18.12
2018-07-17T03:26:56.326Z,18.19
2018-07-17T03:27:56.406Z,18.12
2018-07-17T03:28:56.306Z,18.12
2018-07-17T03:29:56.346Z,18.12
2018-07-17T03:30:56.322Z,18.06
2018-07-17T03:31:56.328Z,18.12
2018-07-17T03:32:56.329Z,18.12
2018-07-17T03:33:56.349Z,18.12
2018-07-17T03:34:56.384Z,18.19
2018-07-17T03:35:56.359Z,18.12
2018-07-17T03:36:56.510Z,18.12
2018-07-17T03:37:56.317Z,18.12
2018-07-17T03:38:56.314Z,18.06
2018-07-17T03:39:56.479Z,18.06
2018-07-17T03:40:56.385Z,18.06
2018-07-17T03:41:56.319Z,18.06
2018-07-17T03:42:56.529Z,18.12
2018-07-17T03:43:56.353Z,18.06
2018-07-17T03:44:56.360Z,18.12
2018-07-17T03:45:56.377Z,18.06
2018-07-17T03:46:56.314Z,18.06
2018-07-17T03:47:56.414Z,18.12
2018-07-17T03:48:56.348Z,18.06
2018-07-17T03:49:56.340Z,18.12
2018-07-17T03:50:56.380Z,18.12
2018-07-17T03:51:56.371Z,18.06
2018-07-17T03:52:56.344Z,18.12
2018-07-17T03:53:56.342Z,18.06
2018-07-17T03:54:56.341Z,18.06
2018-07-17T03:55:56.323Z,18.06
2018-07-17T03:56:56.588Z,18
2018-07-17T03:57:56.370Z,18.06
2018-07-17T03:58:56.378Z,18
2018-07-17T03:59:56.303Z,18
2018-07-17T04:00:56.365Z,18
2018-07-17T04:01:56.375Z,18
2018-07-17T04:02:57.522Z,18
2018-07-17T04:03:56.312Z,17.94
2018-07-17T04:04:56.402Z,17.94
2018-07-17T04:05:56.345Z,17.94
2018-07-17T04:06:56.405Z,17.87
2018-07-17T04:07:56.505Z,17.94
2018-07-17T04:08:56.376Z,17.87
2018-07-17T04:09:56.358Z,17.87
2018-07-17T04:10:56.454Z,17.87
2018-07-17T04:11:56.341Z,17.87
2018-07-17T04:12:56.461Z,17.87
2018-07-17T04:13:56.443Z,17.87
2018-07-17T04:14:56.352Z,17.81
2018-07-17T04:15:56.325Z,17.87
2018-07-17T04:16:56.467Z,17.87
2018-07-17T04:17:56.294Z,17.87
2018-07-17T04:18:56.301Z,17.87
2018-07-17T04:19:56.426Z,17.87
2018-07-17T04:20:56.389Z,17.94
2018-07-17T04:21:56.409Z,17.87
2018-07-17T04:22:56.782Z,17.94
2018-07-17T04:23:56.291Z,17.87
2018-07-17T04:24:56.285Z,17.87
2018-07-17T04:25:56.307Z,17.94
2018-07-17T04:26:56.302Z,17.87
2018-07-17T04:27:56.289Z,17.87
2018-07-17T04:28:56.314Z,17.94
2018-07-17T04:29:56.598Z,17.87
2018-07-17T04:30:56.357Z,17.94
2018-07-17T04:31:57.234Z,17.94
2018-07-17T04:32:56.357Z,17.94
2018-07-17T04:33:56.312Z,17.94
2018-07-17T04:34:56.325Z,17.94
2018-07-17T04:35:56.300Z,18
2018-07-17T04:36:56.331Z,18
2018-07-17T04:37:56.312Z,18.06
2018-07-17T04:38:56.356Z,18.06
2018-07-17T04:39:56.521Z,18
2018-07-17T04:40:56.308Z,18.06
2018-07-17T04:41:56.360Z,18.12
2018-07-17T04:42:56.397Z,18.12
2018-07-17T04:43:56.318Z,18.12
2018-07-17T04:44:56.389Z,18.12
2018-07-17T04:45:56.373Z,18.12
2018-07-17T04:46:56.569Z,18.19
2018-07-17T04:47:56.305Z,18.12
2018-07-17T04:48:56.488Z,18.19
2018-07-17T04:49:56.308Z,18.19
2018-07-17T04:50:56.307Z,18.25
2018-07-17T04:51:56.297Z,18.19
2018-07-17T04:52:56.349Z,18.19
2018-07-17T04:53:57.210Z,18.25
2018-07-17T04:54:56.334Z,18.25
2018-07-17T04:55:56.309Z,18.31
2018-07-17T04:56:56.340Z,18.31
2018-07-17T04:57:56.293Z,18.25
2018-07-17T04:58:56.300Z,18.25
2018-07-17T04:59:56.285Z,18.31
2018-07-17T05:00:56.474Z,18.31
2018-07-17T05:01:56.981Z,18.31
2018-07-17T05:02:56.406Z,18.31
2018-07-17T05:03:56.325Z,18.31
2018-07-17T05:04:56.294Z,18.31
2018-07-17T05:05:56.299Z,18.31
2018-07-17T05:06:56.385Z,18.37
2018-07-17T05:07:56.352Z,18.37
2018-07-17T05:08:56.318Z,18.37
2018-07-17T05:09:56.330Z,18.44
2018-07-17T05:10:56.354Z,18.37
2018-07-17T05:11:56.277Z,18.44
2018-07-17T05:12:56.864Z,18.44
2018-07-17T05:13:56.355Z,18.5
2018-07-17T05:14:56.370Z,18.5
2018-07-17T05:15:56.279Z,18.5
2018-07-17T05:16:56.294Z,18.56
2018-07-17T05:17:56.379Z,18.56
2018-07-17T05:18:56.327Z,18.62
2018-07-17T05:19:56.322Z,18.62
2018-07-17T05:20:56.309Z,18.56
2018-07-17T05:21:56.284Z,18.62
2018-07-17T05:22:57.105Z,18.62
2018-07-17T05:23:56.255Z,18.62
2018-07-17T05:24:56.431Z,18.62
2018-07-17T05:25:56.282Z,18.56
2018-07-17T05:26:56.317Z,18.62
2018-07-17T05:27:56.314Z,18.62
2018-07-17T05:28:56.860Z,18.62
2018-07-17T05:29:56.641Z,18.62
2018-07-17T05:30:56.289Z,18.69
2018-07-17T05:31:56.315Z,18.69
2018-07-17T05:32:56.278Z,18.69
2018-07-17T05:33:56.380Z,18.69
2018-07-17T05:34:56.448Z,18.75
2018-07-17T05:35:56.457Z,18.75
2018-07-17T05:36:56.505Z,18.75
2018-07-17T05:37:56.338Z,18.75
2018-07-17T05:38:56.294Z,18.75
2018-07-17T05:39:56.370Z,18.81
2018-07-17T05:40:56.440Z,18.81
2018-07-17T05:41:56.343Z,18.81
2018-07-17T05:42:56.310Z,18.87
2018-07-17T05:43:56.254Z,18.94
2018-07-17T05:44:56.331Z,18.94
2018-07-17T05:45:56.261Z,19
2018-07-17T05:46:56.278Z,19
2018-07-17T05:47:56.289Z,19
2018-07-17T05:48:56.266Z,19
2018-07-17T05:49:56.266Z,19.06
2018-07-17T05:50:56.336Z,19.12
2018-07-17T05:51:56.757Z,19.12
2018-07-17T05:52:56.280Z,19.12
2018-07-17T05:53:56.270Z,19.19
2018-07-17T05:54:56.300Z,19.19
2018-07-17T05:55:56.265Z,19.25
2018-07-17T05:56:56.297Z,19.25
2018-07-17T05:57:56.303Z,19.25
2018-07-17T05:58:56.285Z,19.31
2018-07-17T05:59:56.264Z,19.31
2018-07-17T06:00:56.320Z,19.37
2018-07-17T06:01:56.288Z,19.37
2018-07-17T06:02:56.268Z,19.37
2018-07-17T06:03:56.247Z,19.44
2018-07-17T06:04:56.477Z,19.44
2018-07-17T06:05:56.306Z,19.44
2018-07-17T06:06:56.267Z,19.5
2018-07-17T06:07:56.917Z,19.5
2018-07-17T06:08:56.419Z,19.56
2018-07-17T06:09:56.279Z,19.56
2018-07-17T06:10:56.283Z,19.56
2018-07-17T06:11:56.301Z,19.56
2018-07-17T06:12:56.345Z,19.62
2018-07-17T06:13:56.242Z,19.69
2018-07-17T06:14:56.308Z,19.69
2018-07-17T06:15:56.296Z,19.69
2018-07-17T06:16:56.468Z,19.75
2018-07-17T06:17:56.370Z,19.75
2018-07-17T06:18:56.674Z,19.75
2018-07-17T06:19:56.440Z,19.81
2018-07-17T06:20:56.328Z,19.81
2018-07-17T06:21:56.959Z,19.81
2018-07-17T06:22:56.294Z,19.87
2018-07-17T06:23:56.438Z,19.87
2018-07-17T06:24:56.555Z,19.87
2018-07-17T06:25:56.334Z,19.94
2018-07-17T06:26:56.419Z,19.94
2018-07-17T06:27:56.329Z,20
2018-07-17T06:28:56.363Z,20
2018-07-17T06:29:56.410Z,20
2018-07-17T06:30:56.319Z,20.06
2018-07-17T06:31:56.273Z,20
2018-07-17T06:32:56.679Z,20.06
2018-07-17T06:33:56.520Z,20.06
2018-07-17T06:34:56.486Z,20.06
2018-07-17T06:35:56.313Z,20.06
2018-07-17T06:36:56.376Z,20.06
2018-07-17T06:37:56.306Z,20.12
2018-07-17T06:38:56.904Z,20.12
2018-07-17T06:39:56.420Z,20.12
2018-07-17T06:40:56.462Z,20.19
2018-07-17T06:41:56.271Z,20.19
2018-07-17T06:42:56.270Z,20.19
2018-07-17T06:43:56.322Z,20.25
2018-07-17T06:44:56.259Z,20.25
2018-07-17T06:45:56.264Z,20.31
2018-07-17T06:46:56.288Z,20.31
2018-07-17T06:47:56.248Z,20.31
2018-07-17T06:48:56.257Z,20.37
2018-07-17T06:49:56.246Z,20.37
2018-07-17T06:50:56.824Z,20.37
2018-07-17T06:51:56.320Z,20.5
2018-07-17T06:52:56.281Z,20.5
2018-07-17T06:53:56.245Z,20.5
2018-07-17T06:54:56.267Z,20.56
2018-07-17T06:55:56.251Z,20.56
2018-07-17T06:56:56.332Z,20.56
2018-07-17T06:57:56.256Z,20.56
2018-07-17T06:58:56.238Z,20.56
2018-07-17T06:59:56.322Z,20.62
2018-07-17T07:00:56.255Z,20.62
2018-07-17T07:01:56.233Z,20.62
2018-07-17T07:02:56.290Z,20.69
2018-07-17T07:03:56.319Z,20.62
2018-07-17T07:04:56.221Z,20.69
2018-07-17T07:05:56.248Z,20.69
2018-07-17T07:06:56.241Z,20.75
2018-07-17T07:07:56.277Z,20.81
2018-07-17T07:08:56.252Z,20.81
2018-07-17T07:09:56.246Z,20.88
2018-07-17T07:10:56.280Z,20.94
2018-07-17T07:11:56.240Z,20.88
2018-07-17T07:12:56.248Z,20.94
2018-07-17T07:13:56.275Z,20.94
2018-07-17T07:14:56.247Z,21
2018-07-17T07:15:56.401Z,21.06
2018-07-17T07:16:56.251Z,21.06
2018-07-17T07:17:56.335Z,21.12
2018-07-17T07:18:56.238Z,21.12
2018-07-17T07:19:56.234Z,21.12
2018-07-17T07:20:56.253Z,21.19
2018-07-17T07:21:56.224Z,21.19
2018-07-17T07:22:56.254Z,21.19
2018-07-17T07:23:56.326Z,21.25
2018-07-17T07:24:56.300Z,21.25
2018-07-17T07:25:56.422Z,21.31
2018-07-17T07:26:56.244Z,21.37
2018-07-17T07:27:56.299Z,21.37
2018-07-17T07:28:56.329Z,21.44
2018-07-17T07:29:56.276Z,21.44
2018-07-17T07:30:56.724Z,21.44
2018-07-17T07:31:56.247Z,21.5
2018-07-17T07:32:56.347Z,21.56
2018-07-17T07:33:56.240Z,21.56
2018-07-17T07:34:56.265Z,21.62
2018-07-17T07:35:56.235Z,21.69
2018-07-17T07:36:56.322Z,21.75
2018-07-17T07:37:56.286Z,21.81
2018-07-17T07:38:56.303Z,21.87
2018-07-17T07:39:56.258Z,21.87
2018-07-17T07:40:56.229Z,21.87
2018-07-17T07:41:56.310Z,21.94
2018-07-17T07:42:57.496Z,22
2018-07-17T07:43:56.235Z,22.06
2018-07-17T07:44:56.217Z,22.06
2018-07-17T07:45:56.280Z,22.13
2018-07-17T07:46:56.242Z,22.13
2018-07-17T07:47:56.239Z,22.19
2018-07-17T07:48:56.233Z,22.25
2018-07-17T07:49:56.219Z,22.31
2018-07-17T07:50:56.343Z,22.31
2018-07-17T07:51:56.391Z,22.31
2018-07-17T07:52:56.276Z,22.37
2018-07-17T07:53:56.270Z,22.37
2018-07-17T07:54:56.340Z,22.37
2018-07-17T07:55:56.291Z,22.37
2018-07-17T07:56:56.213Z,22.37
2018-07-17T07:57:56.235Z,22.37
2018-07-17T07:58:56.272Z,22.44
2018-07-17T07:59:56.438Z,22.44
2018-07-17T08:00:56.221Z,22.5
2018-07-17T08:01:56.262Z,22.56
2018-07-17T08:02:56.294Z,22.56
2018-07-17T08:03:56.671Z,22.56
2018-07-17T08:04:56.439Z,22.62
2018-07-17T08:05:56.351Z,22.75
2018-07-17T08:06:56.294Z,22.81
2018-07-17T08:07:56.498Z,22.87
2018-07-17T08:08:56.262Z,22.87
2018-07-17T08:09:56.288Z,22.94
2018-07-17T08:10:56.232Z,23
2018-07-17T08:11:57.000Z,23
2018-07-17T08:12:56.254Z,23
2018-07-17T08:13:56.247Z,23.06
2018-07-17T08:14:56.332Z,23.06
2018-07-17T08:15:56.445Z,23.12
2018-07-17T08:16:56.426Z,23.12
2018-07-17T08:17:56.221Z,23.19
2018-07-17T08:18:56.235Z,23.25
2018-07-17T08:19:56.333Z,23.25
2018-07-17T08:20:56.342Z,23.31
2018-07-17T08:21:56.247Z,23.38
2018-07-17T08:22:56.358Z,23.38
2018-07-17T08:23:56.262Z,23.44
2018-07-17T08:24:56.266Z,23.5
2018-07-17T08:25:56.381Z,23.56
2018-07-17T08:26:56.252Z,23.62
2018-07-17T08:27:56.207Z,23.62
2018-07-17T08:28:56.243Z,23.69
2018-07-17T08:29:56.231Z,23.69
2018-07-17T08:30:56.248Z,23.69
2018-07-17T08:31:56.227Z,23.75
2018-07-17T08:32:56.298Z,23.81
2018-07-17T08:33:56.276Z,23.81
2018-07-17T08:34:56.234Z,23.81
2018-07-17T08:35:56.488Z,23.81
2018-07-17T08:36:56.238Z,23.81
2018-07-17T08:37:56.260Z,23.81
2018-07-17T08:38:56.220Z,23.87
2018-07-17T08:39:56.312Z,23.81
2018-07-17T08:40:56.231Z,23.87
2018-07-17T08:41:56.274Z,23.94
2018-07-17T08:42:56.245Z,23.94
2018-07-17T08:43:56.259Z,24
2018-07-17T08:44:56.260Z,24.06
2018-07-17T08:45:56.401Z,24.19
2018-07-17T08:46:56.335Z,24.19
2018-07-17T08:47:56.354Z,24.25
2018-07-17T08:48:56.218Z,24.37
2018-07-17T08:49:56.331Z,24.44
2018-07-17T08:50:56.254Z,24.44
2018-07-17T08:51:56.225Z,24.5
2018-07-17T08:52:56.214Z,24.5
2018-07-17T08:53:56.237Z,24.56
2018-07-17T08:54:56.413Z,24.63
2018-07-17T08:55:56.223Z,24.63
2018-07-17T08:56:56.389Z,24.63
2018-07-17T08:57:56.280Z,24.63
2018-07-17T08:58:56.355Z,24.63
2018-07-17T08:59:56.331Z,24.63
2018-07-17T09:00:56.355Z,24.69
2018-07-17T09:01:56.237Z,24.69
2018-07-17T09:02:56.222Z,24.81
2018-07-17T09:03:56.210Z,24.81
2018-07-17T09:04:56.267Z,24.87
2018-07-17T09:05:56.922Z,24.87
2018-07-17T09:06:56.217Z,24.94
2018-07-17T09:07:56.247Z,24.94
2018-07-17T09:08:56.397Z,25
2018-07-17T09:09:56.299Z,25.06
2018-07-17T09:10:56.245Z,25.06
2018-07-17T09:11:56.238Z,25.06
2018-07-17T09:12:56.669Z,25.06
2018-07-17T09:13:56.239Z,25.12
2018-07-17T09:14:56.379Z,25.12
2018-07-17T09:15:56.247Z,25.12
2018-07-17T09:16:56.207Z,25.19
2018-07-17T09:17:56.361Z,25.19
2018-07-17T09:18:56.228Z,25.12
2018-07-17T09:19:56.380Z,25.19
2018-07-17T09:20:56.271Z,25.19
2018-07-17T09:21:56.255Z,25.19
2018-07-17T09:22:56.363Z,25.25
2018-07-17T09:23:56.287Z,25.25
2018-07-17T09:24:56.360Z,25.31
2018-07-17T09:25:56.219Z,25.37
2018-07-17T09:26:56.397Z,25.37
2018-07-17T09:27:56.198Z,25.37
2018-07-17T09:28:56.311Z,25.44
2018-07-17T09:29:56.290Z,25.44
2018-07-17T09:30:56.229Z,25.44
2018-07-17T09:31:56.254Z,25.44
2018-07-17T09:32:56.339Z,25.44
2018-07-17T09:33:56.202Z,25.5
2018-07-17T09:34:56.450Z,25.56
2018-07-17T09:35:56.443Z,25.62
2018-07-17T09:36:56.212Z,25.69
2018-07-17T09:37:56.181Z,25.75
2018-07-17T09:38:56.566Z,25.75
2018-07-17T09:39:56.232Z,25.81
2018-07-17T09:40:56.169Z,25.88
2018-07-17T09:41:56.214Z,25.88
2018-07-17T09:42:56.199Z,25.94
2018-07-17T09:43:56.210Z,25.94
2018-07-17T09:44:56.230Z,26
2018-07-17T09:45:56.238Z,26.06
2018-07-17T09:46:56.222Z,26.06
2018-07-17T09:47:56.195Z,26.12
2018-07-17T09:48:56.199Z,26.19
2018-07-17T09:49:56.208Z,26.19
2018-07-17T09:50:56.198Z,26.19
2018-07-17T09:51:56.213Z,26.25
2018-07-17T09:52:56.243Z,26.25
2018-07-17T09:53:56.209Z,26.31
2018-07-17T09:54:56.194Z,26.31
2018-07-17T09:55:56.237Z,26.31
2018-07-17T09:56:56.218Z,26.31
2018-07-17T09:57:56.263Z,26.37
2018-07-17T09:58:56.379Z,26.37
2018-07-17T09:59:56.376Z,26.44
2018-07-17T10:00:56.229Z,26.5
2018-07-17T10:01:56.246Z,26.5
2018-07-17T10:02:57.116Z,26.56
2018-07-17T10:03:56.362Z,26.69
2018-07-17T10:04:56.241Z,26.75
2018-07-17T10:05:56.221Z,26.81
2018-07-17T10:06:56.261Z,26.87
2018-07-17T10:07:56.300Z,26.94
2018-07-17T10:08:56.273Z,26.94
2018-07-17T10:09:56.201Z,27
2018-07-17T10:10:56.530Z,26.94
2018-07-17T10:11:56.218Z,27
2018-07-17T10:12:56.291Z,27.06
2018-07-17T10:13:56.312Z,27.06
2018-07-17T10:14:56.252Z,27.06
2018-07-17T10:15:56.220Z,27.13
2018-07-17T10:16:56.228Z,27.19
2018-07-17T10:17:56.405Z,27.19
2018-07-17T10:18:56.417Z,27.25
2018-07-17T10:19:56.611Z,27.25
2018-07-17T10:20:56.270Z,27.37
2018-07-17T10:21:56.234Z,27.31
2018-07-17T10:22:56.302Z,27.37
2018-07-17T10:23:56.239Z,27.37
2018-07-17T10:24:56.252Z,27.31
2018-07-17T10:25:56.276Z,27.37
2018-07-17T10:26:56.227Z,27.44
2018-07-17T10:27:56.220Z,27.44
2018-07-17T10:28:56.228Z,27.44
2018-07-17T10:29:56.282Z,27.5
2018-07-17T10:30:56.216Z,27.5
2018-07-17T10:31:56.613Z,27.5
2018-07-17T10:32:56.359Z,27.5
2018-07-17T10:33:56.203Z,27.44
2018-07-17T10:34:56.420Z,27.44
2018-07-17T10:35:56.178Z,27.5
2018-07-17T10:36:56.985Z,27.44
2018-07-17T10:37:56.206Z,27.5
2018-07-17T10:38:56.358Z,27.56
2018-07-17T10:39:56.224Z,27.62
2018-07-17T10:40:56.215Z,27.62
2018-07-17T10:41:56.194Z,27.62
2018-07-17T10:42:56.329Z,27.62
2018-07-17T10:43:56.277Z,27.69
2018-07-17T10:44:56.279Z,27.75
2018-07-17T10:45:56.236Z,27.81
2018-07-17T10:46:56.296Z,27.87
2018-07-17T10:47:56.262Z,27.87
2018-07-17T10:48:56.278Z,27.94
2018-07-17T10:49:56.159Z,28
2018-07-17T10:50:56.196Z,28
2018-07-17T10:51:56.202Z,28
2018-07-17T10:52:56.285Z,28
2018-07-17T10:53:56.206Z,28.06
2018-07-17T10:54:56.181Z,27.94
2018-07-17T10:55:56.189Z,28.06
2018-07-17T10:56:56.239Z,28.06
2018-07-17T10:57:56.240Z,28
2018-07-17T10:58:56.213Z,28.12
2018-07-17T10:59:56.301Z,28.19
2018-07-17T11:00:56.831Z,28.12
2018-07-17T11:01:56.242Z,28.19
2018-07-17T11:02:56.276Z,28.19
2018-07-17T11:03:56.348Z,28.31
2018-07-17T11:04:56.259Z,28.38
2018-07-17T11:05:56.199Z,28.5
2018-07-17T11:06:59.465Z,28.56
2018-07-17T11:07:58.340Z,28.56
2018-07-17T11:08:56.519Z,28.56
2018-07-17T11:09:56.175Z,28.56
2018-07-17T11:10:56.205Z,28.56
2018-07-17T11:11:56.209Z,28.56
2018-07-17T11:12:56.219Z,28.62
2018-07-17T11:13:56.212Z,28.62
2018-07-17T11:14:56.231Z,28.5
2018-07-17T11:15:56.193Z,28.44
2018-07-17T11:16:56.181Z,28.5
2018-07-17T11:17:56.406Z,28.5
2018-07-17T11:18:56.185Z,28.56
2018-07-17T11:19:56.268Z,28.62
2018-07-17T11:20:56.394Z,28.81
2018-07-17T11:21:56.185Z,28.75
2018-07-17T11:22:56.344Z,28.81
2018-07-17T11:23:56.266Z,28.81
2018-07-17T11:24:56.215Z,28.81
2018-07-17T11:25:56.315Z,28.81
2018-07-17T11:26:56.172Z,28.87
2018-07-17T11:27:56.179Z,28.81
2018-07-17T11:28:56.278Z,28.81
2018-07-17T11:29:56.180Z,28.81
2018-07-17T11:30:56.177Z,28.81
2018-07-17T11:31:56.648Z,28.81
2018-07-17T11:32:56.189Z,28.75
2018-07-17T11:33:56.289Z,28.69
2018-07-17T11:34:56.251Z,28.62
2018-07-17T11:35:56.224Z,28.56
2018-07-17T11:36:56.274Z,28.44
2018-07-17T11:37:56.207Z,28.31
2018-07-17T11:38:56.194Z,28.25
2018-07-17T11:39:56.199Z,28.12
2018-07-17T11:40:56.279Z,28
2018-07-17T11:41:56.266Z,27.94
2018-07-17T11:42:56.250Z,27.75
2018-07-17T11:43:56.300Z,27.69
2018-07-17T11:44:56.205Z,27.56
2018-07-17T11:45:56.225Z,27.44
2018-07-17T11:46:56.494Z,27.31
2018-07-17T11:47:57.456Z,27.13
2018-07-17T11:48:56.429Z,27
2018-07-17T11:49:56.186Z,26.87
2018-07-17T11:50:56.173Z,26.81
2018-07-17T11:51:56.179Z,26.69
2018-07-17T11:52:56.266Z,26.62
2018-07-17T11:53:56.194Z,26.56
2018-07-17T11:54:56.453Z,26.37
2018-07-17T11:55:56.196Z,26.37
2018-07-17T11:56:56.233Z,26.25
2018-07-17T11:57:56.201Z,26.12
2018-07-17T11:58:57.200Z,26
2018-07-17T11:59:56.262Z,25.94
2018-07-17T12:00:57.838Z,25.88
2018-07-17T12:01:59.061Z,25.81
2018-07-17T12:02:56.444Z,25.81
2018-07-17T12:03:57.012Z,25.69
2018-07-17T12:04:56.282Z,25.69
2018-07-17T12:05:56.963Z,25.62
2018-07-17T12:06:56.193Z,25.62
2018-07-17T12:07:56.258Z,25.69
2018-07-17T12:08:56.157Z,25.69
2018-07-17T12:09:56.163Z,25.62
2018-07-17T12:10:56.184Z,25.62
2018-07-17T12:11:56.168Z,25.62
2018-07-17T12:12:56.643Z,25.56
2018-07-17T12:13:56.202Z,25.56
2018-07-17T12:14:56.197Z,25.5
2018-07-17T12:15:56.192Z,25.44
2018-07-17T12:16:56.221Z,25.44
2018-07-17T12:18:10.644Z,25.44
2018-07-17T12:18:56.172Z,25.37
2018-07-17T12:19:57.923Z,25.37
2018-07-17T12:20:56.203Z,25.19
2018-07-17T12:21:56.175Z,25.12
2018-07-17T12:22:56.141Z,25.12
2018-07-17T12:23:56.165Z,24.94
2018-07-17T12:24:56.194Z,24.87
2018-07-17T12:25:56.195Z,24.81
2018-07-17T12:26:56.141Z,24.69
2018-07-17T12:27:56.504Z,24.56
2018-07-17T12:28:56.232Z,24.5
2018-07-17T12:29:56.164Z,24.44
2018-07-17T12:30:56.158Z,24.37
2018-07-17T12:31:56.209Z,24.31
2018-07-17T12:32:56.219Z,24.31
2018-07-17T12:33:56.136Z,24.31
2018-07-17T12:34:56.749Z,24.25
2018-07-17T12:35:56.170Z,24.19
2018-07-17T12:36:56.186Z,24.12
2018-07-17T12:37:56.224Z,24.12
2018-07-17T12:38:56.161Z,24.06
2018-07-17T12:39:56.190Z,24.06
2018-07-17T12:40:56.167Z,24
2018-07-17T12:41:56.202Z,24
2018-07-17T12:42:56.228Z,24
2018-07-17T12:43:56.193Z,23.94
2018-07-17T12:44:56.211Z,23.94
2018-07-17T12:45:56.233Z,23.94
2018-07-17T12:46:56.169Z,23.94
2018-07-17T12:47:56.186Z,23.87
2018-07-17T12:48:56.173Z,23.87
2018-07-17T12:49:56.772Z,23.87
2018-07-17T12:50:56.181Z,23.81
2018-07-17T12:51:56.218Z,23.62
2018-07-17T12:52:56.180Z,23.44
2018-07-17T12:53:56.173Z,23.25
2018-07-17T12:54:56.181Z,23.19
2018-07-17T12:55:56.213Z,23.12
2018-07-17T12:56:56.145Z,23.12
2018-07-17T12:57:56.154Z,23.06
2018-07-17T12:58:56.200Z,23.12